Time;durP1;ratioP1;P1;durP2;ratioP2;P2;SDS_P1;SDS_P2;PMS_P1;PMS_P2;Temp;Humidity;BMP_temperature;BMP_pressure;BME280_temperature;BME280_humidity;BME280_pressure;Samples;Min_cycle;Max_cycle;Signal;HPM_P1;HPM_P2
2022/07/15 00:00:06;;;;;;;5.55;1.88;;;14.00;99.90;;;;;;5039999;28;20037;-62
2022/07/15 00:02:31;;;;;;;4.50;2.10;;;13.90;99.90;;;;;;5032892;28;20037;-64
2022/07/15 00:04:57;;;;;;;8.85;2.40;;;14.00;99.90;;;;;;5041010;28;20505;-64
2022/07/15 00:07:25;;;;;;;7.32;2.15;;;13.90;99.90;;;;;;5035730;28;20030;-63
2022/07/15 00:12:35;;;;;;;7.80;1.90;;;13.90;99.90;;;;;;5031602;28;20487;-63
2022/07/15 00:15:01;;;;;;;9.55;1.92;;;13.90;99.90;;;;;;5030247;28;20042;-64
2022/07/15 00:17:27;;;;;;;6.68;2.22;;;13.80;99.90;;;;;;5040474;28;20063;-63
2022/07/15 00:19:53;;;;;;;5.93;2.25;;;13.80;99.90;;;;;;5031994;28;20483;-64
2022/07/15 00:22:19;;;;;;;6.20;1.88;;;13.80;99.90;;;;;;5040316;28;20041;-63
2022/07/15 00:24:44;;;;;;;6.90;2.10;;;13.70;99.90;;;;;;5042622;28;20034;-63
2022/07/15 00:27:11;;;;;;;6.15;2.38;;;13.70;99.90;;;;;;5034810;28;20415;-63
2022/07/15 00:29:36;;;;;;;7.53;2.10;;;13.70;99.90;;;;;;5030408;28;20068;-63
2022/07/15 00:32:02;;;;;;;5.13;2.30;;;13.70;99.90;;;;;;5034843;28;20091;-63
2022/07/15 00:34:28;;;;;;;4.63;2.05;;;13.70;99.90;;;;;;5040646;28;20566;-63
2022/07/15 00:36:54;;;;;;;6.80;1.98;;;13.80;99.90;;;;;;5041381;28;20132;-64
2022/07/15 00:39:20;;;;;;;4.13;1.88;;;13.80;99.90;;;;;;5043969;28;20049;-64
2022/07/15 00:41:45;;;;;;;6.03;2.20;;;13.80;99.90;;;;;;5031499;28;20433;-64
2022/07/15 00:44:11;;;;;;;6.72;2.45;;;13.80;99.90;;;;;;5041254;28;20442;-64
2022/07/15 00:46:37;;;;;;;6.13;2.15;;;13.80;99.90;;;;;;5037758;28;20046;-64
2022/07/15 00:49:06;;;;;;;4.07;1.83;;;13.90;99.90;;;;;;5037305;28;20042;-63
2022/07/15 00:51:45;;;;;;;7.43;2.28;;;13.90;99.90;;;;;;5034470;28;20048;-64
2022/07/15 00:54:13;;;;;;;7.10;2.30;;;13.90;99.90;;;;;;5037463;28;20505;-63
2022/07/15 00:56:44;;;;;;;8.93;2.78;;;13.90;99.90;;;;;;5027528;28;20605;-63
2022/07/15 00:59:12;;;;;;;8.38;2.47;;;13.90;99.90;;;;;;5031901;28;20557;-64
2022/07/15 01:01:37;;;;;;;5.32;2.33;;;13.90;99.90;;;;;;5035227;28;20064;-64
2022/07/15 01:04:05;;;;;;;10.85;3.00;;;13.90;99.90;;;;;;5027880;28;20037;-63
2022/07/15 01:06:32;;;;;;;5.25;2.38;;;14.00;99.90;;;;;;5031094;28;20082;-63
2022/07/15 01:08:58;;;;;;;9.45;3.60;;;14.00;99.90;;;;;;5036305;28;20045;-64
2022/07/15 01:11:24;;;;;;;6.85;2.80;;;14.10;99.90;;;;;;5031986;28;20581;-64
2022/07/15 01:13:50;;;;;;;7.32;2.85;;;14.10;99.90;;;;;;5032194;28;20049;-64
2022/07/15 01:16:16;;;;;;;7.32;3.38;;;14.10;99.90;;;;;;5036357;28;20059;-63
2022/07/15 01:18:41;;;;;;;8.00;3.70;;;14.10;99.90;;;;;;5039691;28;20037;-63
2022/07/15 01:21:07;;;;;;;7.22;3.33;;;14.10;99.90;;;;;;5038649;28;20388;-64
2022/07/15 01:23:33;;;;;;;8.75;3.35;;;14.20;99.90;;;;;;5034079;28;20037;-64
2022/07/15 01:25:58;;;;;;;11.07;3.30;;;14.10;99.90;;;;;;5033709;28;20051;-63
2022/07/15 01:28:24;;;;;;;7.38;3.35;;;14.20;99.90;;;;;;5040519;28;20480;-63
2022/07/15 01:30:50;;;;;;;8.88;3.10;;;14.20;99.90;;;;;;5025321;28;20037;-64
2022/07/15 01:33:16;;;;;;;8.13;3.13;;;14.20;99.90;;;;;;5032661;28;20080;-63
2022/07/15 01:35:41;;;;;;;6.25;3.20;;;14.20;99.90;;;;;;5030594;28;20506;-64
2022/07/15 01:38:08;;;;;;;8.10;3.00;;;14.20;99.90;;;;;;5042069;28;20136;-63
2022/07/15 01:40:34;;;;;;;7.85;2.80;;;14.30;99.90;;;;;;5038076;28;20364;-63
2022/07/15 01:43:00;;;;;;;8.70;3.40;;;14.20;99.90;;;;;;5036574;28;20039;-64
2022/07/15 01:45:25;;;;;;;8.13;3.05;;;14.20;99.90;;;;;;5036838;28;20163;-63
2022/07/15 01:47:54;;;;;;;9.10;3.17;;;14.30;99.90;;;;;;5037239;28;20086;-63
2022/07/15 01:50:20;;;;;;;8.38;3.53;;;14.20;99.90;;;;;;5035224;28;20415;-63
2022/07/15 01:52:46;;;;;;;7.13;3.25;;;14.20;99.90;;;;;;5030473;28;20034;-63
2022/07/15 01:55:11;;;;;;;9.35;3.70;;;14.20;99.90;;;;;;5031879;28;20040;-63
2022/07/15 01:57:38;;;;;;;9.57;3.55;;;14.20;99.90;;;;;;5036311;28;20103;-63
2022/07/15 02:00:06;;;;;;;7.05;3.20;;;14.30;99.90;;;;;;5027429;28;20080;-63
2022/07/15 02:02:32;;;;;;;7.53;3.20;;;14.30;99.90;;;;;;5038055;28;20029;-63
2022/07/15 02:04:57;;;;;;;9.45;3.15;;;14.30;99.90;;;;;;5030093;28;20040;-63
2022/07/15 02:07:23;;;;;;;9.23;3.28;;;14.30;99.90;;;;;;5035458;28;20398;-63
2022/07/15 02:09:49;;;;;;;6.80;3.28;;;14.20;99.90;;;;;;5044940;28;20045;-63
2022/07/15 02:12:14;;;;;;;8.30;2.85;;;14.20;99.90;;;;;;5021680;28;20041;-64
2022/07/15 02:14:40;;;;;;;7.28;3.40;;;14.30;99.90;;;;;;5029373;28;20095;-63
2022/07/15 02:17:07;;;;;;;11.05;3.67;;;14.30;99.90;;;;;;5032517;28;20132;-63
2022/07/15 02:19:33;;;;;;;8.05;3.60;;;14.30;99.90;;;;;;5036030;28;20065;-63
2022/07/15 02:21:58;;;;;;;9.88;3.83;;;14.30;99.90;;;;;;5035140;28;20321;-64
2022/07/15 02:24:24;;;;;;;12.65;3.92;;;14.30;99.90;;;;;;5038253;28;20029;-64
2022/07/15 02:26:50;;;;;;;11.07;3.97;;;14.30;99.90;;;;;;5026604;28;20471;-63
2022/07/15 02:29:16;;;;;;;7.18;3.72;;;14.30;99.90;;;;;;5036462;28;20412;-63
2022/07/15 02:31:42;;;;;;;9.80;4.07;;;14.30;99.90;;;;;;5034499;28;20060;-63
2022/07/15 02:34:09;;;;;;;8.68;3.83;;;14.30;99.90;;;;;;5041591;28;20104;-63
2022/07/15 02:36:36;;;;;;;7.75;4.25;;;14.30;99.90;;;;;;5033767;28;20037;-63
2022/07/15 02:39:02;;;;;;;8.38;3.90;;;14.30;99.90;;;;;;5029186;28;20041;-64
2022/07/15 02:41:29;;;;;;;11.13;4.10;;;14.20;99.90;;;;;;5029005;28;20040;-63
2022/07/15 02:43:55;;;;;;;10.25;4.35;;;14.20;99.90;;;;;;5033334;28;20038;-63
2022/07/15 02:46:21;;;;;;;10.70;4.00;;;14.20;99.90;;;;;;5033720;28;20509;-63
2022/07/15 02:48:47;;;;;;;9.57;3.70;;;14.10;99.90;;;;;;5034672;28;20124;-63
2022/07/15 02:51:14;;;;;;;11.80;4.35;;;14.10;99.90;;;;;;5035593;28;20152;-63
2022/07/15 02:53:40;;;;;;;8.80;3.60;;;14.10;99.90;;;;;;5036667;28;20469;-63
2022/07/15 02:56:06;;;;;;;9.88;3.92;;;14.00;99.90;;;;;;5032148;28;20045;-63
2022/07/15 02:58:32;;;;;;;8.73;3.63;;;14.00;99.90;;;;;;5038240;28;20049;-65
2022/07/15 03:00:59;;;;;;;7.85;3.92;;;13.90;99.90;;;;;;5033990;28;20043;-63
2022/07/15 03:03:27;;;;;;;10.50;4.50;;;13.90;99.90;;;;;;5036008;28;20032;-63
2022/07/15 03:05:57;;;;;;;9.00;4.10;;;13.80;99.90;;;;;;5057436;28;20042;-63
2022/07/15 03:08:22;;;;;;;8.60;4.10;;;13.80;99.90;;;;;;5039909;28;20091;-63
2022/07/15 03:10:48;;;;;;;7.35;3.67;;;13.70;99.90;;;;;;5036059;28;20486;-65
2022/07/15 03:13:14;;;;;;;10.73;4.10;;;13.70;99.90;;;;;;5032643;28;20407;-63
2022/07/15 03:15:39;;;;;;;10.52;3.75;;;13.60;99.90;;;;;;5032824;28;20045;-63
2022/07/15 03:18:05;;;;;;;8.60;3.70;;;13.60;99.90;;;;;;5038526;22;20551;-65
2022/07/15 03:20:30;;;;;;;9.27;4.30;;;13.50;99.90;;;;;;5011336;28;20073;-65
2022/07/15 03:22:56;;;;;;;8.98;3.75;;;13.50;99.90;;;;;;5012922;28;20069;-65
2022/07/15 03:25:22;;;;;;;6.55;3.40;;;13.50;99.90;;;;;;5014797;28;20029;-65
2022/07/15 03:27:47;;;;;;;7.63;3.60;;;13.50;99.90;;;;;;5004780;28;20388;-65
2022/07/15 03:30:14;;;;;;;7.43;3.28;;;13.40;99.90;;;;;;5009178;28;20487;-65
2022/07/15 03:32:39;;;;;;;7.45;3.28;;;13.30;99.90;;;;;;5003525;28;20407;-64
2022/07/15 03:35:05;;;;;;;12.38;3.83;;;13.30;99.90;;;;;;5011579;28;20343;-65
2022/07/15 03:37:32;;;;;;;8.73;3.25;;;13.30;99.90;;;;;;5003944;28;20080;-65
2022/07/15 03:39:57;;;;;;;8.40;3.47;;;13.30;99.90;;;;;;5006393;28;20050;-66
2022/07/15 03:42:23;;;;;;;6.00;3.05;;;13.20;99.90;;;;;;5003079;28;20046;-64
2022/07/15 03:44:48;;;;;;;5.95;3.10;;;13.30;99.90;;;;;;5007414;28;20034;-65
2022/07/15 03:47:14;;;;;;;6.05;3.05;;;13.20;99.90;;;;;;4997571;28;20120;-66
2022/07/15 03:49:40;;;;;;;5.03;2.30;;;13.20;99.90;;;;;;4999063;28;20038;-65
2022/07/15 03:52:05;;;;;;;2.78;1.85;;;13.20;99.90;;;;;;4997680;28;20041;-64
2022/07/15 03:54:31;;;;;;;6.00;2.00;;;13.10;99.90;;;;;;5004341;28;20411;-65
2022/07/15 03:56:56;;;;;;;3.22;1.67;;;13.10;99.90;;;;;;4997315;28;20381;-65
2022/07/15 03:59:22;;;;;;;2.00;1.70;;;13.00;99.90;;;;;;4998719;28;20041;-65
2022/07/15 04:01:48;;;;;;;3.03;1.48;;;13.00;99.90;;;;;;5009922;28;20045;-65
2022/07/15 04:04:14;;;;;;;5.97;1.92;;;13.00;99.90;;;;;;5005595;28;20034;-65
2022/07/15 04:06:40;;;;;;;3.78;1.70;;;12.90;99.90;;;;;;5005659;28;20060;-65
2022/07/15 04:09:07;;;;;;;5.85;2.28;;;13.00;99.90;;;;;;4995763;28;20072;-64
2022/07/15 04:11:33;;;;;;;5.75;2.50;;;12.90;99.90;;;;;;5010365;28;20045;-64
2022/07/15 04:13:59;;;;;;;5.72;2.42;;;12.90;99.90;;;;;;5010871;28;20049;-64
2022/07/15 04:16:25;;;;;;;8.48;3.03;;;12.90;99.90;;;;;;5008650;28;20092;-65
2022/07/15 04:18:53;;;;;;;8.00;3.25;;;12.90;99.90;;;;;;4992383;28;20046;-64
2022/07/15 04:21:19;;;;;;;7.80;3.17;;;12.90;99.90;;;;;;5001969;28;20104;-65
2022/07/15 04:23:44;;;;;;;7.53;3.13;;;12.90;99.90;;;;;;5002811;28;20034;-64
2022/07/15 04:26:10;;;;;;;10.68;3.83;;;12.90;99.90;;;;;;4997813;28;20550;-64
2022/07/15 04:28:36;;;;;;;7.88;3.25;;;12.90;99.90;;;;;;5010073;28;20038;-66
2022/07/15 04:31:01;;;;;;;11.52;3.83;;;12.90;99.90;;;;;;4997914;28;20038;-65
2022/07/15 04:33:27;;;;;;;7.88;3.42;;;12.90;99.90;;;;;;5009468;28;20042;-64
2022/07/15 04:35:54;;;;;;;7.20;3.67;;;13.00;99.90;;;;;;4998045;28;20030;-64
2022/07/15 04:38:20;;;;;;;5.70;3.30;;;12.90;99.90;;;;;;5005230;28;20037;-65
2022/07/15 04:40:46;;;;;;;6.63;3.80;;;12.90;99.90;;;;;;5002986;28;20140;-64
2022/07/15 04:43:12;;;;;;;7.03;3.45;;;12.90;99.90;;;;;;5000509;28;20133;-64
2022/07/15 04:45:37;;;;;;;13.77;3.53;;;13.00;99.90;;;;;;5010097;28;20045;-64
2022/07/15 04:50:45;;;;;;;8.73;3.83;;;13.00;99.90;;;;;;5002759;28;20076;-64
2022/07/15 04:50:51;;;;;;;9.32;3.60;;;13.00;99.90;;;;;;5010925;28;20100;-65
2022/07/15 04:53:18;;;;;;;7.53;3.50;;;13.00;99.90;;;;;;4999351;28;20049;-64
2022/07/15 04:55:44;;;;;;;8.05;3.45;;;13.10;99.90;;;;;;5005873;28;20045;-64
2022/07/15 04:58:10;;;;;;;17.75;3.83;;;13.00;99.90;;;;;;5004323;28;20092;-64
2022/07/15 05:00:35;;;;;;;9.15;3.80;;;13.10;99.90;;;;;;4998541;28;20046;-64
2022/07/15 05:03:04;;;;;;;7.95;3.20;;;13.10;99.90;;;;;;5001237;28;20037;-65
2022/07/15 05:05:29;;;;;;;5.57;2.70;;;13.20;99.90;;;;;;5003663;28;20461;-64
2022/07/15 05:07:55;;;;;;;7.13;3.30;;;13.20;99.90;;;;;;5005038;28;20102;-65
2022/07/15 05:10:21;;;;;;;11.98;2.90;;;13.20;99.90;;;;;;4998657;28;20080;-64
2022/07/15 05:12:47;;;;;;;9.10;2.92;;;13.30;99.90;;;;;;4998357;28;20110;-63
2022/07/15 05:15:14;;;;;;;8.85;2.90;;;13.30;99.90;;;;;;4997707;28;20038;-63
2022/07/15 05:17:40;;;;;;;7.20;2.85;;;13.30;99.90;;;;;;5004171;28;20038;-63
2022/07/15 05:20:07;;;;;;;9.18;2.78;;;13.40;99.90;;;;;;4994726;28;20046;-64
2022/07/15 05:22:32;;;;;;;6.93;2.40;;;13.40;99.90;;;;;;4999773;28;20072;-64
2022/07/15 05:24:58;;;;;;;6.50;2.40;;;13.50;99.90;;;;;;4997809;28;20070;-68
2022/07/15 05:27:23;;;;;;;7.85;2.45;;;13.60;99.90;;;;;;5006675;28;20112;-65
2022/07/15 05:29:49;;;;;;;7.68;2.47;;;13.60;99.90;;;;;;5010565;28;20477;-65
2022/07/15 05:32:15;;;;;;;9.65;2.95;;;13.70;99.90;;;;;;5007766;28;20041;-65
2022/07/15 05:34:41;;;;;;;6.25;2.40;;;13.80;99.90;;;;;;4998180;28;20078;-65
2022/07/15 05:37:07;;;;;;;7.20;2.10;;;13.90;99.90;;;;;;5004033;28;20088;-65
2022/07/15 05:39:32;;;;;;;5.80;2.20;;;13.90;99.90;;;;;;5006978;28;20442;-65
2022/07/15 05:41:58;;;;;;;6.75;2.38;;;14.00;99.90;;;;;;5008817;28;20447;-65
2022/07/15 05:44:24;;;;;;;9.82;2.40;;;14.10;99.90;;;;;;5009481;28;20099;-64
2022/07/15 05:46:50;;;;;;;6.45;2.03;;;14.10;99.90;;;;;;5009000;28;20073;-64
2022/07/15 05:49:16;;;;;;;9.60;2.25;;;14.10;99.90;;;;;;5006612;28;20046;-64
2022/07/15 05:51:42;;;;;;;10.95;2.88;;;14.20;99.90;;;;;;5009098;28;20034;-64
2022/07/15 05:54:08;;;;;;;9.40;2.20;;;14.30;99.90;;;;;;5008418;28;20357;-64
2022/07/15 05:56:33;;;;;;;4.53;1.63;;;14.30;99.90;;;;;;5007623;28;20113;-64
2022/07/15 05:58:59;;;;;;;7.65;2.25;;;14.30;99.90;;;;;;5007560;28;20133;-64
2022/07/15 06:01:25;;;;;;;8.10;1.70;;;14.30;99.90;;;;;;5006951;28;20484;-64
2022/07/15 06:03:51;;;;;;;6.35;1.63;;;14.20;99.90;;;;;;5007185;28;20520;-64
2022/07/15 06:06:17;;;;;;;3.50;1.40;;;14.20;99.90;;;;;;5006167;28;20088;-64
2022/07/15 06:08:43;;;;;;;7.00;1.70;;;14.20;99.90;;;;;;5008581;28;20038;-64
2022/07/15 06:11:08;;;;;;;5.70;1.55;;;14.20;99.90;;;;;;5008938;28;20381;-63
2022/07/15 06:13:34;;;;;;;4.72;1.35;;;14.20;99.90;;;;;;5009120;28;20109;-64
2022/07/15 06:16:00;;;;;;;4.65;1.70;;;14.30;99.90;;;;;;5008526;28;20078;-63
2022/07/15 06:18:26;;;;;;;5.60;1.40;;;14.30;99.90;;;;;;5007991;28;20084;-64
2022/07/15 06:20:52;;;;;;;2.88;1.10;;;14.30;99.90;;;;;;5010111;28;20091;-64
2022/07/15 06:23:18;;;;;;;2.58;1.00;;;14.30;99.90;;;;;;5011890;28;20030;-65
2022/07/15 06:25:44;;;;;;;4.88;1.10;;;14.30;99.90;;;;;;5012613;28;20040;-65
2022/07/15 06:28:10;;;;;;;4.20;1.00;;;14.30;99.90;;;;;;5001473;28;20042;-64
2022/07/15 06:30:36;;;;;;;2.25;0.90;;;14.40;99.90;;;;;;5006768;28;20038;-64
2022/07/15 06:33:02;;;;;;;1.48;0.73;;;14.40;99.90;;;;;;5008670;28;20044;-64
2022/07/15 06:35:28;;;;;;;2.42;0.80;;;14.50;99.90;;;;;;5009644;28;20030;-64
2022/07/15 06:37:53;;;;;;;3.47;1.00;;;14.40;99.90;;;;;;4992653;28;20034;-64
2022/07/15 06:40:19;;;;;;;2.55;0.85;;;14.50;99.90;;;;;;5010540;28;20153;-65
2022/07/15 06:42:46;;;;;;;3.40;0.70;;;14.60;99.90;;;;;;5013679;28;20033;-64
2022/07/15 06:45:12;;;;;;;3.47;0.85;;;14.60;99.90;;;;;;5011713;28;20038;-64
2022/07/15 06:47:42;;;;;;;2.25;0.70;;;14.70;99.90;;;;;;5008035;28;20077;-65
2022/07/15 06:50:08;;;;;;;2.75;0.70;;;14.70;99.90;;;;;;5013189;28;20133;-64
2022/07/15 06:52:34;;;;;;;4.68;0.98;;;14.70;99.90;;;;;;5012539;28;20041;-65
2022/07/15 06:55:00;;;;;;;3.10;0.88;;;14.80;99.90;;;;;;5012097;28;20692;-65
2022/07/15 06:57:27;;;;;;;2.72;0.70;;;14.80;99.90;;;;;;5009889;28;20125;-64
2022/07/15 06:59:53;;;;;;;3.78;0.80;;;14.90;99.90;;;;;;5002045;28;20042;-64
2022/07/15 07:02:18;;;;;;;4.40;0.73;;;14.90;99.90;;;;;;5001477;28;20061;-64
2022/07/15 07:04:45;;;;;;;1.77;0.90;;;15.00;99.90;;;;;;5011729;28;20036;-65
2022/07/15 07:07:10;;;;;;;2.22;0.70;;;14.90;99.90;;;;;;5005200;28;20192;-65
2022/07/15 07:09:36;;;;;;;1.65;0.73;;;15.00;99.90;;;;;;5008675;28;20052;-65
2022/07/15 07:12:02;;;;;;;1.60;0.70;;;15.10;99.90;;;;;;5006000;28;20037;-65
2022/07/15 07:14:28;;;;;;;2.38;0.70;;;15.10;99.90;;;;;;5005280;28;20034;-65
2022/07/15 07:16:54;;;;;;;1.88;0.60;;;15.20;99.90;;;;;;5009298;28;20045;-64
2022/07/15 07:19:20;;;;;;;1.75;0.57;;;15.20;99.90;;;;;;5006042;28;20477;-64
2022/07/15 07:21:45;;;;;;;2.33;0.47;;;15.20;99.90;;;;;;5010681;28;20042;-65
2022/07/15 07:24:11;;;;;;;2.63;0.60;;;15.30;99.90;;;;;;5009010;28;20549;-66
2022/07/15 07:26:37;;;;;;;3.60;0.80;;;15.30;99.90;;;;;;5011730;28;20053;-64
2022/07/15 07:29:03;;;;;;;1.35;0.50;;;15.30;99.90;;;;;;5010334;28;20428;-64
2022/07/15 07:31:29;;;;;;;1.20;0.57;;;15.40;99.90;;;;;;5007464;28;20443;-64
2022/07/15 07:33:56;;;;;;;1.88;0.47;;;15.40;99.90;;;;;;5010658;28;20041;-64
2022/07/15 07:36:22;;;;;;;1.73;0.35;;;15.50;99.90;;;;;;5011565;28;20041;-65
2022/07/15 07:38:48;;;;;;;0.82;0.52;;;15.50;99.90;;;;;;5008522;28;20396;-64
2022/07/15 07:41:14;;;;;;;3.75;0.80;;;15.60;99.90;;;;;;5010390;28;20038;-65
2022/07/15 07:43:39;;;;;;;4.30;0.90;;;15.70;99.90;;;;;;5011373;28;20029;-66
2022/07/15 07:46:06;;;;;;;2.65;0.50;;;15.70;99.90;;;;;;5007160;28;20041;-65
2022/07/15 07:48:31;;;;;;;3.08;0.73;;;15.80;99.90;;;;;;5010277;28;20508;-66
2022/07/15 07:50:57;;;;;;;3.47;1.45;;;15.80;99.90;;;;;;4998834;28;20042;-66
2022/07/15 07:53:23;;;;;;;2.47;0.57;;;15.90;99.90;;;;;;5009366;28;20033;-66
2022/07/15 07:55:50;;;;;;;1.10;0.60;;;15.90;99.90;;;;;;5008695;28;20503;-66
2022/07/15 07:58:16;;;;;;;2.15;0.45;;;16.00;99.90;;;;;;5006696;28;20077;-66
2022/07/15 08:00:43;;;;;;;1.55;0.60;;;16.10;99.90;;;;;;5008072;28;20060;-65
2022/07/15 08:03:08;;;;;;;2.00;0.50;;;16.10;99.90;;;;;;5007758;28;20087;-65
2022/07/15 08:05:34;;;;;;;2.03;0.60;;;16.10;99.90;;;;;;5009792;28;20030;-65
2022/07/15 08:08:11;;;;;;;3.22;0.60;;;16.20;99.90;;;;;;5002152;28;20042;-64
2022/07/15 08:10:37;;;;;;;3.35;0.80;;;16.30;99.90;;;;;;5005111;28;20131;-63
2022/07/15 08:13:04;;;;;;;1.33;0.43;;;16.40;99.90;;;;;;5005004;28;20053;-65
2022/07/15 08:15:30;;;;;;;0.70;0.50;;;16.60;99.90;;;;;;5011111;28;20034;-64
2022/07/15 08:17:56;;;;;;;2.15;0.50;;;16.70;99.90;;;;;;5008580;28;20403;-64
2022/07/15 08:20:22;;;;;;;2.55;0.73;;;16.80;99.90;;;;;;5011126;28;20026;-64
2022/07/15 08:22:48;;;;;;;1.15;0.50;;;16.90;99.90;;;;;;5010082;28;20042;-64
2022/07/15 08:25:14;;;;;;;1.63;0.50;;;17.00;99.90;;;;;;5004783;28;20088;-64
2022/07/15 08:27:39;;;;;;;1.98;0.68;;;17.30;99.90;;;;;;5006485;28;20029;-66
2022/07/15 08:30:05;;;;;;;0.75;0.50;;;17.50;99.90;;;;;;5013520;28;20048;-63
2022/07/15 08:32:31;;;;;;;1.92;0.60;;;17.50;99.90;;;;;;5009463;28;20045;-65
2022/07/15 08:34:57;;;;;;;2.30;0.77;;;17.50;99.90;;;;;;5011021;28;20045;-64
2022/07/15 08:37:25;;;;;;;1.50;0.40;;;17.60;99.90;;;;;;4994994;28;20034;-64
2022/07/15 08:39:51;;;;;;;300.73;27.38;;;18.00;99.90;;;;;;5010436;28;20065;-64
2022/07/15 08:42:18;;;;;;;38.78;3.92;;;18.20;99.90;;;;;;5005183;28;20073;-64
2022/07/15 08:44:44;;;;;;;27.85;2.83;;;18.30;99.90;;;;;;5006791;28;20037;-65
2022/07/15 08:47:10;;;;;;;14.73;1.73;;;18.30;99.90;;;;;;5001104;28;20045;-67
2022/07/15 08:49:39;;;;;;;7.97;0.75;;;18.30;99.90;;;;;;5004289;28;20038;-65
2022/07/15 08:52:05;;;;;;;0.77;0.50;;;18.10;99.90;;;;;;5006483;28;20050;-64
2022/07/15 08:54:32;;;;;;;1.05;0.30;;;18.00;99.90;;;;;;5006065;28;20388;-64
2022/07/15 08:56:58;;;;;;;2.88;0.60;;;18.00;99.80;;;;;;5010013;28;20168;-67
2022/07/15 08:59:24;;;;;;;1.75;0.63;;;18.10;99.90;;;;;;4985499;28;20034;-69
2022/07/15 09:01:50;;;;;;;1.05;0.50;;;18.50;99.90;;;;;;5009269;28;20042;-70
2022/07/15 09:04:17;;;;;;;4.70;1.00;;;18.90;99.70;;;;;;5008680;28;20115;-68
2022/07/15 09:06:45;;;;;;;1.70;0.50;;;19.50;99.30;;;;;;5006208;28;20045;-67
2022/07/15 09:09:29;;;;;;;1.42;0.68;;;19.80;97.80;;;;;;5007690;28;20361;-68
2022/07/15 09:12:04;;;;;;;1.23;0.47;;;20.00;95.20;;;;;;5008070;28;20049;-65
2022/07/15 09:14:33;;;;;;;1.33;0.55;;;20.10;93.50;;;;;;5009649;28;20117;-64
2022/07/15 09:17:09;;;;;;;0.73;0.50;;;20.10;94.20;;;;;;5006825;28;20054;-69
2022/07/15 09:20:11;;;;;;;4.13;0.80;;;19.90;92.70;;;;;;5073619;22;20037;-76
2022/07/15 09:22:51;;;;;;;2.05;0.77;;;19.70;93.00;;;;;;5034966;28;20426;-77
2022/07/15 09:25:18;;;;;;;1.13;0.65;;;19.60;92.80;;;;;;5036591;28;20040;-76
2022/07/15 09:27:45;;;;;;;1.52;0.93;;;19.60;94.00;;;;;;5052288;28;20480;-76
2022/07/15 09:33:38;;;;;;;2.70;0.68;;;19.60;93.20;;;;;;5044418;28;20055;-76
2022/07/15 09:36:06;;;;;;;2.13;0.65;;;19.60;93.40;;;;;;5047768;28;20114;-76
2022/07/15 09:38:33;;;;;;;2.28;0.60;;;19.90;94.70;;;;;;5041414;28;20044;-76
2022/07/15 09:41:01;;;;;;;2.25;0.70;;;20.30;93.80;;;;;;5047403;28;20096;-76
2022/07/15 09:43:26;;;;;;;2.08;0.60;;;20.60;93.20;;;;;;5048341;28;20040;-76
2022/07/15 09:46:00;;;;;;;2.45;0.70;;;20.90;92.60;;;;;;5040706;28;20079;-76
2022/07/15 09:48:33;;;;;;;2.58;0.77;;;21.30;91.50;;;;;;5050711;28;20041;-77
2022/07/15 09:51:05;;;;;;;1.52;0.60;;;21.50;91.40;;;;;;5051916;28;20102;-77
2022/07/15 09:53:32;;;;;;;574.40;37.88;;;21.90;90.30;;;;;;5046208;28;20094;-77
2022/07/15 09:55:59;;;;;;;35.03;3.25;;;22.20;91.30;;;;;;5061373;28;20108;-76
2022/07/15 09:58:28;;;;;;;5.60;1.08;;;21.90;89.50;;;;;;5048638;28;20052;-76
2022/07/15 10:00:55;;;;;;;2.17;0.57;;;21.70;87.60;;;;;;5052490;28;20048;-76
2022/07/15 10:03:23;;;;;;;0.88;0.60;;;21.40;87.70;;;;;;5027932;28;20037;-76
2022/07/15 10:05:56;;;;;;;3.40;1.15;;;21.10;87.50;;;;;;5048356;28;20040;-77
2022/07/15 10:08:22;;;;;;;2.88;0.90;;;20.70;85.90;;;;;;5048084;28;20048;-77
2022/07/15 10:10:50;;;;;;;1.70;0.55;;;20.30;87.60;;;;;;5053923;28;20040;-77
2022/07/15 10:13:42;;;;;;;1.75;0.55;;;20.10;89.00;;;;;;5048185;28;20045;-77
2022/07/15 10:16:29;;;;;;;2.50;0.80;;;19.90;89.30;;;;;;5051386;28;20041;-78
2022/07/15 10:19:01;;;;;;;1.67;0.70;;;19.70;90.20;;;;;;5047108;28;20049;-77
2022/07/15 10:21:48;;;;;;;1.33;0.60;;;19.60;90.90;;;;;;5030522;28;20040;-77
2022/07/15 10:24:52;;;;;;;2.17;0.70;;;19.60;91.50;;;;;;5068296;28;20040;-76
2022/07/15 10:27:36;;;;;;;1.30;0.70;;;20.00;92.20;;;;;;5049208;28;20094;-77
2022/07/15 10:30:07;;;;;;;1.67;0.70;;;20.50;92.30;;;;;;5047469;28;20040;-77
2022/07/15 10:33:05;;;;;;;0.63;0.63;;;21.00;91.90;;;;;;5033013;28;20127;-77
2022/07/15 10:35:36;;;;;;;3.08;0.80;;;21.50;90.70;;;;;;5054479;28;20066;-77
2022/07/15 10:38:26;;;;;;;4.20;0.70;;;21.70;89.90;;;;;;5053568;28;20060;-77
2022/07/15 10:41:05;;;;;;;1.40;0.50;;;21.50;84.60;;;;;;5050872;28;20523;-77
2022/07/15 10:44:08;;;;;;;2.95;0.73;;;21.30;86.30;;;;;;5048727;28;20511;-77
2022/07/15 10:46:34;;;;;;;3.28;0.80;;;21.10;86.30;;;;;;5049612;28;20052;-77
2022/07/15 10:49:00;;;;;;;3.20;0.80;;;20.80;89.00;;;;;;5053929;28;20045;-77
2022/07/15 10:51:35;;;;;;;4.45;1.10;;;20.60;89.50;;;;;;5055970;28;20092;-78
2022/07/15 10:54:09;;;;;;;4.65;0.80;;;20.50;90.10;;;;;;5051153;28;20043;-77
2022/07/15 10:56:40;;;;;;;2.33;0.70;;;20.30;90.70;;;;;;5049829;28;20041;-77
2022/07/15 10:59:14;;;;;;;3.88;0.80;;;20.30;90.80;;;;;;5048217;28;20115;-78
2022/07/15 11:01:44;;;;;;;4.60;0.82;;;20.30;90.90;;;;;;5046918;28;20121;-77
2022/07/15 11:04:23;;;;;;;2.00;0.60;;;20.50;91.40;;;;;;5046638;28;20042;-77
2022/07/15 11:07:07;;;;;;;2.88;0.60;;;20.70;90.00;;;;;;5042238;28;20036;-77
2022/07/15 11:10:10;;;;;;;2.55;1.00;;;20.60;89.00;;;;;;5051918;28;20060;-77
2022/07/15 11:12:36;;;;;;;5.40;0.90;;;20.50;89.40;;;;;;5055266;28;20236;-77
2022/07/15 11:15:12;;;;;;;2.22;0.70;;;20.50;90.30;;;;;;5042719;28;20500;-78
2022/07/15 11:17:46;;;;;;;5.32;0.90;;;20.60;90.90;;;;;;5048709;28;20068;-77
2022/07/15 11:20:33;;;;;;;1.00;0.65;;;20.90;90.40;;;;;;5051470;28;20642;-76
2022/07/15 11:23:00;;;;;;;2.55;0.60;;;21.20;88.80;;;;;;5052575;28;20123;-77
2022/07/15 11:25:31;;;;;;;4.28;0.80;;;21.40;89.40;;;;;;5048477;28;20041;-74
2022/07/15 11:28:07;;;;;;;12.82;1.20;;;21.60;88.20;;;;;;5049144;28;20040;-76
2022/07/15 11:30:37;;;;;;;4.97;1.08;;;21.70;87.80;;;;;;5036824;28;20040;-76
2022/07/15 11:33:07;;;;;;;2.50;0.63;;;22.00;88.40;;;;;;5046286;28;20041;-76
2022/07/15 11:35:44;;;;;;;3.50;0.90;;;22.40;87.80;;;;;;5038829;28;20032;-77
2022/07/15 11:38:10;;;;;;;3.05;1.00;;;22.70;85.80;;;;;;5034178;28;20124;-76
2022/07/15 11:46:06;;;;;;;3.25;0.80;;;23.50;82.60;;;;;;5069879;28;20090;-77
2022/07/15 11:48:40;;;;;;;2.58;0.80;;;23.60;78.40;;;;;;5037904;28;20039;-77
2022/07/15 11:51:07;;;;;;;4.63;1.27;;;23.40;76.60;;;;;;5058772;28;20036;-78
2022/07/15 11:53:39;;;;;;;4.28;0.88;;;23.30;78.00;;;;;;5055146;28;20300;-76
2022/07/15 11:56:07;;;;;;;3.53;0.85;;;23.10;77.00;;;;;;5068535;28;20048;-78
2022/07/15 11:58:44;;;;;;;1.80;0.82;;;23.00;78.40;;;;;;5042599;28;20127;-77
2022/07/15 12:01:13;;;;;;;4.50;0.77;;;23.10;79.50;;;;;;5050667;28;20538;-77
2022/07/15 12:04:05;;;;;;;2.75;0.77;;;23.50;79.00;;;;;;5055694;28;20048;-78
2022/07/15 12:06:32;;;;;;;4.28;1.05;;;23.60;77.60;;;;;;5033275;28;20073;-76
2022/07/15 12:09:05;;;;;;;1.65;0.68;;;23.50;78.10;;;;;;5052029;28;20086;-77
2022/07/15 12:11:34;;;;;;;2.72;0.95;;;23.50;77.70;;;;;;5029163;28;20041;-76
2022/07/15 12:14:26;;;;;;;7.05;1.00;;;23.30;77.40;;;;;;5027076;28;20053;-76
2022/07/15 12:16:53;;;;;;;2.15;0.98;;;23.20;75.00;;;;;;5047427;28;20104;-76
2022/07/15 12:19:24;;;;;;;2.45;0.90;;;23.00;76.10;;;;;;5030180;28;20033;-77
2022/07/15 12:21:53;;;;;;;3.23;1.00;;;22.80;76.50;;;;;;5050721;28;20121;-77
2022/07/15 12:24:25;;;;;;;3.05;1.27;;;22.80;77.60;;;;;;5052374;28;20029;-77
2022/07/15 12:26:51;;;;;;;1.13;0.80;;;22.80;78.10;;;;;;5033806;28;20072;-76
2022/07/15 12:29:18;;;;;;;3.83;0.88;;;23.00;78.40;;;;;;5041736;28;20102;-76
2022/07/15 12:31:55;;;;;;;3.10;1.00;;;22.90;77.00;;;;;;5031342;28;20813;-76
2022/07/15 12:34:22;;;;;;;2.72;0.98;;;22.80;76.60;;;;;;5045276;28;20044;-76
2022/07/15 12:36:58;;;;;;;2.85;0.80;;;22.60;76.60;;;;;;5044825;28;20150;-75
2022/07/15 12:39:28;;;;;;;2.20;0.88;;;22.50;75.00;;;;;;5048522;28;20428;-76
2022/07/15 12:42:16;;;;;;;2.33;0.90;;;22.40;76.80;;;;;;5037199;28;20052;-75
2022/07/15 12:44:44;;;;;;;2.28;0.70;;;22.40;77.10;;;;;;5048270;28;20040;-76
2022/07/15 12:47:10;;;;;;;1.63;0.70;;;22.60;77.10;;;;;;5058127;28;20480;-76
2022/07/15 12:49:50;;;;;;;1.60;0.80;;;22.60;77.20;;;;;;5042177;28;20052;-76
2022/07/15 12:52:36;;;;;;;5.45;0.90;;;22.50;74.90;;;;;;5043590;28;20036;-75
2022/07/15 12:55:19;;;;;;;1.05;0.82;;;22.20;76.00;;;;;;5025552;28;20048;-76
2022/07/15 12:57:45;;;;;;;5.07;1.13;;;22.10;76.60;;;;;;5031536;28;21368;-75
2022/07/15 13:00:13;;;;;;;1.35;0.70;;;22.00;77.00;;;;;;5045062;28;20041;-76
2022/07/15 13:02:59;;;;;;;3.63;0.80;;;22.10;77.80;;;;;;5047743;28;20474;-76